Time;durP1;ratioP1;P1;durP2;ratioP2;P2;SDS_P1;SDS_P2;PMS_P1;PMS_P2;Temp;Humidity;BMP_temperature;BMP_pressure;BME280_temperature;BME280_humidity;BME280_pressure;Samples;Min_cycle;Max_cycle;Signal;HPM_P1;HPM_P2
2023/09/23 00:00:15;;;;;;;2.22;1.23;;;19.90;74.50;;;;;;10490765;28;20561;-58
2023/09/23 00:05:19;;;;;;;2.47;1.35;;;19.90;74.50;;;;;;10490704;28;20029;-57
2023/09/23 00:10:20;;;;;;;2.40;1.13;;;19.90;74.50;;;;;;10490591;28;20029;-58
2023/09/23 00:15:21;;;;;;;4.25;1.40;;;19.90;74.50;;;;;;10478949;28;20029;-57
2023/09/23 00:20:22;;;;;;;2.40;0.98;;;19.90;74.50;;;;;;10453473;28;20040;-58
2023/09/23 00:25:23;;;;;;;1.75;1.05;;;19.90;74.50;;;;;;10456882;28;20078;-58
2023/09/23 00:30:26;;;;;;;1.67;0.80;;;19.90;74.50;;;;;;10467369;28;20040;-57
2023/09/23 00:35:28;;;;;;;2.17;1.33;;;19.90;74.50;;;;;;10459854;28;20025;-56
2023/09/23 00:40:32;;;;;;;1.75;0.95;;;19.90;74.40;;;;;;10456447;28;20051;-57
2023/09/23 00:45:34;;;;;;;1.77;1.20;;;19.80;74.40;;;;;;10456949;28;20106;-58
2023/09/23 00:50:35;;;;;;;2.47;0.93;;;19.80;74.40;;;;;;10486248;28;20110;-58
2023/09/23 00:55:42;;;;;;;1.10;0.88;;;19.80;74.40;;;;;;10497380;28;20032;-58
2023/09/23 01:00:43;;;;;;;2.25;0.80;;;19.80;74.30;;;;;;10457619;28;20518;-58
2023/09/23 01:05:45;;;;;;;1.60;0.90;;;19.80;74.40;;;;;;10471027;28;20376;-58
2023/09/23 01:10:51;;;;;;;2.33;1.10;;;19.80;74.30;;;;;;10454554;28;20028;-57
2023/09/23 01:15:51;;;;;;;2.65;1.25;;;19.80;74.30;;;;;;10458172;28;20037;-58
2023/09/23 01:20:56;;;;;;;1.17;0.95;;;19.80;74.30;;;;;;10454789;28;20021;-57
2023/09/23 01:25:58;;;;;;;1.52;0.95;;;19.80;74.20;;;;;;10454667;28;20025;-58
2023/09/23 01:31:02;;;;;;;1.83;0.88;;;19.80;74.30;;;;;;10471820;28;20032;-57
2023/09/23 01:36:03;;;;;;;1.13;0.98;;;19.80;74.20;;;;;;10454571;28;20048;-57
2023/09/23 01:41:04;;;;;;;1.02;0.80;;;19.80;74.50;;;;;;10453586;28;20041;-58
2023/09/23 01:46:06;;;;;;;2.63;0.93;;;19.80;74.20;;;;;;10453860;28;20029;-58
2023/09/23 01:51:10;;;;;;;3.90;1.17;;;19.80;74.20;;;;;;10453223;28;20106;-58
2023/09/23 01:56:11;;;;;;;2.03;1.05;;;19.80;74.30;;;;;;10453897;28;20057;-58
2023/09/23 02:01:11;;;;;;;1.35;0.95;;;19.70;74.30;;;;;;10453163;28;20484;-58
2023/09/23 02:06:12;;;;;;;2.33;1.15;;;19.70;74.30;;;;;;10453572;28;20032;-58
2023/09/23 02:11:13;;;;;;;2.08;1.02;;;19.70;74.30;;;;;;10452562;28;20033;-58
2023/09/23 02:16:14;;;;;;;1.48;0.77;;;19.70;74.30;;;;;;10458172;28;20063;-58
2023/09/23 02:21:15;;;;;;;1.73;1.08;;;19.70;74.30;;;;;;10493423;28;20037;-57
2023/09/23 02:26:16;;;;;;;1.58;1.15;;;19.70;74.30;;;;;;10493646;28;20043;-57
2023/09/23 02:31:18;;;;;;;2.85;1.35;;;19.70;74.20;;;;;;10477888;28;20029;-57
2023/09/23 02:36:19;;;;;;;1.30;0.98;;;19.70;74.30;;;;;;10451802;28;20061;-58
2023/09/23 02:41:19;;;;;;;1.98;1.17;;;19.70;74.30;;;;;;10451329;28;20029;-56
2023/09/23 02:46:20;;;;;;;3.20;1.33;;;19.70;74.20;;;;;;10451599;28;20657;-57
2023/09/23 02:51:21;;;;;;;2.70;1.73;;;19.60;74.10;;;;;;10451326;28;20025;-57
2023/09/23 02:56:22;;;;;;;1.80;1.20;;;19.60;74.20;;;;;;10451567;28;20025;-57
2023/09/23 03:01:25;;;;;;;2.55;1.80;;;19.60;74.20;;;;;;10450637;28;20506;-58
2023/09/23 03:06:26;;;;;;;1.67;1.27;;;19.60;74.20;;;;;;10473316;28;20043;-58
2023/09/23 03:11:26;;;;;;;2.15;1.23;;;19.60;74.20;;;;;;10491709;28;20024;-57
2023/09/23 03:16:30;;;;;;;2.65;1.45;;;19.60;74.20;;;;;;10471215;28;20057;-58
2023/09/23 03:21:30;;;;;;;2.30;1.23;;;19.60;74.20;;;;;;10449928;28;20098;-57
2023/09/23 03:26:31;;;;;;;1.63;1.23;;;19.60;74.30;;;;;;10450221;28;20078;-58
2023/09/23 03:31:32;;;;;;;2.28;1.60;;;19.60;74.20;;;;;;10462674;28;20456;-57
2023/09/23 03:36:33;;;;;;;3.92;2.35;;;19.60;74.10;;;;;;10450220;28;20036;-58
2023/09/23 03:41:36;;;;;;;3.17;1.70;;;19.60;74.20;;;;;;10449694;28;20448;-58
2023/09/23 03:46:37;;;;;;;3.25;1.40;;;19.60;74.20;;;;;;10450173;28;20031;-58
2023/09/23 03:51:37;;;;;;;2.38;1.40;;;19.60;74.20;;;;;;10461101;28;20094;-58
2023/09/23 03:56:41;;;;;;;2.70;1.75;;;19.60;74.20;;;;;;10456686;28;20021;-58
2023/09/23 04:01:41;;;;;;;3.22;1.70;;;19.50;74.10;;;;;;10457701;28;20033;-57
2023/09/23 04:06:43;;;;;;;2.78;1.80;;;19.50;74.10;;;;;;10457995;28;20432;-58
2023/09/23 04:11:43;;;;;;;2.65;1.77;;;19.50;74.10;;;;;;10457066;28;20083;-57
2023/09/23 04:16:44;;;;;;;2.35;1.80;;;19.50;74.20;;;;;;10466521;28;20778;-58
2023/09/23 04:21:45;;;;;;;2.42;1.60;;;19.50;74.10;;;;;;10498253;28;20032;-58
2023/09/23 04:26:47;;;;;;;2.42;1.63;;;19.50;74.10;;;;;;10498598;28;20474;-58
2023/09/23 04:31:49;;;;;;;2.05;1.40;;;19.50;74.20;;;;;;10476571;28;20116;-58
2023/09/23 04:36:50;;;;;;;2.78;1.85;;;19.50;74.10;;;;;;10458498;28;20047;-58
2023/09/23 04:41:50;;;;;;;3.22;2.47;;;19.50;74.10;;;;;;10478821;28;20028;-58
2023/09/23 04:46:51;;;;;;;2.55;1.95;;;19.50;74.10;;;;;;10497510;28;20079;-58
2023/09/23 04:51:52;;;;;;;2.40;1.80;;;19.50;74.10;;;;;;10475398;28;20033;-57
2023/09/23 04:56:53;;;;;;;1.95;1.60;;;19.50;74.10;;;;;;10473417;28;20032;-58
2023/09/23 05:01:54;;;;;;;3.03;2.15;;;19.50;74.10;;;;;;10480968;28;20498;-57
2023/09/23 05:06:56;;;;;;;3.33;2.35;;;19.50;74.10;;;;;;10494350;28;20040;-57
2023/09/23 05:11:57;;;;;;;3.63;2.15;;;19.50;74.10;;;;;;10475893;28;20037;-56
2023/09/23 05:16:58;;;;;;;4.95;3.00;;;19.50;73.90;;;;;;10486924;28;20040;-57
2023/09/23 05:22:00;;;;;;;7.05;2.83;;;19.60;73.70;;;;;;10459763;28;20137;-56
2023/09/23 05:27:00;;;;;;;5.18;2.53;;;19.80;73.60;;;;;;10460841;28;20033;-56
2023/09/23 05:32:01;;;;;;;8.77;2.22;;;19.90;73.70;;;;;;10467002;28;20040;-58
2023/09/23 05:37:02;;;;;;;12.45;3.30;;;19.90;73.90;;;;;;10452803;28;20472;-55
2023/09/23 05:42:03;;;;;;;7.68;2.33;;;19.90;73.60;;;;;;10452178;28;20484;-57
2023/09/23 05:47:04;;;;;;;9.05;2.50;;;19.90;74.10;;;;;;10452995;28;20111;-57
2023/09/23 05:52:05;;;;;;;9.10;2.92;;;20.00;74.00;;;;;;10462804;28;20033;-57
2023/09/23 05:57:05;;;;;;;9.48;3.03;;;19.90;74.40;;;;;;10469013;28;20389;-58
2023/09/23 06:02:08;;;;;;;10.52;3.85;;;19.90;74.30;;;;;;10485283;28;20487;-58
2023/09/23 06:07:09;;;;;;;12.35;3.00;;;19.90;74.40;;;;;;10466533;28;20040;-57
2023/09/23 06:12:10;;;;;;;13.35;3.03;;;19.90;74.10;;;;;;10480420;28;20027;-57
2023/09/23 06:17:11;;;;;;;10.98;3.08;;;19.90;74.20;;;;;;10492233;28;20048;-57
2023/09/23 06:22:12;;;;;;;9.60;2.58;;;19.80;74.30;;;;;;10493666;28;20032;-58
2023/09/23 06:27:12;;;;;;;5.95;2.63;;;19.80;74.20;;;;;;10479081;28;20110;-58
2023/09/23 06:32:13;;;;;;;7.38;3.00;;;19.80;74.30;;;;;;10488595;28;20044;-56
2023/09/23 06:37:14;;;;;;;9.95;3.55;;;19.80;74.40;;;;;;10469028;28;20037;-57
2023/09/23 06:42:15;;;;;;;8.45;3.05;;;19.80;74.40;;;;;;10466738;28;20603;-57
2023/09/23 06:47:16;;;;;;;8.00;3.20;;;19.80;74.40;;;;;;10473235;28;20119;-57
2023/09/23 06:52:18;;;;;;;12.68;3.60;;;19.80;74.50;;;;;;10472495;28;20029;-57
2023/09/23 06:57:18;;;;;;;12.77;3.42;;;19.90;74.70;;;;;;10460069;28;20055;-59
2023/09/23 07:02:19;;;;;;;8.15;2.50;;;19.80;74.20;;;;;;10469769;28;20027;-56
2023/09/23 07:07:20;;;;;;;10.90;3.45;;;20.20;73.60;;;;;;10478261;28;20059;-60
2023/09/23 07:12:21;;;;;;;13.93;2.88;;;20.10;74.20;;;;;;10485631;28;20487;-59
2023/09/23 07:17:22;;;;;;;11.38;2.60;;;20.10;74.30;;;;;;10482831;28;20071;-59
2023/09/23 07:22:23;;;;;;;8.40;2.85;;;20.00;74.40;;;;;;10489288;28;20043;-59
2023/09/23 07:27:24;;;;;;;7.63;2.65;;;20.00;74.50;;;;;;10476244;28;20036;-60
2023/09/23 07:32:25;;;;;;;6.93;2.40;;;20.00;74.30;;;;;;10489521;28;20040;-58
2023/09/23 07:37:25;;;;;;;5.72;2.60;;;20.00;74.60;;;;;;10477020;28;20346;-59
2023/09/23 07:42:26;;;;;;;8.38;2.78;;;20.00;74.60;;;;;;10491145;28;20033;-60
2023/09/23 07:47:27;;;;;;;7.07;3.63;;;20.00;74.30;;;;;;10480248;28;20020;-59
2023/09/23 07:52:28;;;;;;;11.23;4.03;;;20.00;74.60;;;;;;10490508;28;20032;-58
2023/09/23 07:57:28;;;;;;;6.38;2.65;;;20.00;74.80;;;;;;10487740;28;20074;-58
2023/09/23 08:02:29;;;;;;;6.40;2.63;;;20.00;74.60;;;;;;10471732;28;20035;-58
2023/09/23 08:07:31;;;;;;;14.15;2.83;;;20.00;74.50;;;;;;10489877;28;20028;-57
2023/09/23 08:12:34;;;;;;;9.30;2.45;;;20.00;74.50;;;;;;10479850;28;20082;-58
2023/09/23 08:17:35;;;;;;;8.55;3.08;;;20.00;74.80;;;;;;10496601;28;20067;-58
2023/09/23 08:22:36;;;;;;;10.63;3.35;;;20.00;74.40;;;;;;10489296;28;20036;-58
2023/09/23 08:27:37;;;;;;;9.52;2.50;;;19.90;74.50;;;;;;10481597;28;20025;-58
2023/09/23 08:32:41;;;;;;;5.35;2.88;;;19.90;74.60;;;;;;10487912;28;20372;-58
2023/09/23 08:37:45;;;;;;;5.90;2.10;;;19.80;74.40;;;;;;10483134;28;20423;-58
2023/09/23 08:42:52;;;;;;;6.78;2.42;;;19.80;74.50;;;;;;10496052;28;20519;-58
2023/09/23 08:47:53;;;;;;;4.75;2.47;;;19.80;74.60;;;;;;10477618;28;20029;-58
2023/09/23 08:52:57;;;;;;;5.97;2.40;;;19.80;74.60;;;;;;10473442;28;20032;-58
2023/09/23 08:58:02;;;;;;;14.70;3.15;;;19.80;74.50;;;;;;10469692;28;20029;-57
2023/09/23 09:03:03;;;;;;;11.43;3.17;;;19.80;74.10;;;;;;10479035;28;20028;-58
2023/09/23 09:08:05;;;;;;;9.40;2.95;;;19.80;74.20;;;;;;10495582;28;20040;-59
2023/09/23 09:13:07;;;;;;;5.75;2.40;;;19.80;74.40;;;;;;10472594;28;20043;-59
2023/09/23 09:18:08;;;;;;;4.35;2.50;;;19.70;74.50;;;;;;10474734;28;20052;-58
2023/09/23 09:23:13;;;;;;;3.20;1.92;;;19.70;74.60;;;;;;10484931;28;20028;-58
2023/09/23 09:28:16;;;;;;;11.40;2.80;;;19.60;74.70;;;;;;10473069;28;20039;-60
2023/09/23 09:33:19;;;;;;;41.97;5.78;;;19.70;74.50;;;;;;10481110;28;20119;-62
2023/09/23 09:38:21;;;;;;;18.17;3.80;;;19.80;74.40;;;;;;10452822;28;20020;-62
2023/09/23 09:43:24;;;;;;;16.05;3.55;;;19.80;74.20;;;;;;10480831;28;20111;-58
2023/09/23 09:48:28;;;;;;;16.83;3.72;;;19.90;74.40;;;;;;10468023;28;20033;-58
2023/09/23 09:53:29;;;;;;;19.63;3.75;;;20.00;74.50;;;;;;10452555;28;20025;-58
2023/09/23 09:58:41;;;;;;;10.98;3.28;;;20.00;74.90;;;;;;10465141;28;20029;-59
2023/09/23 10:03:51;;;;;;;18.02;3.22;;;20.10;74.70;;;;;;10494420;28;20028;-59
2023/09/23 10:08:53;;;;;;;10.32;3.00;;;20.10;74.80;;;;;;10494004;28;20397;-60
2023/09/23 10:13:54;;;;;;;11.75;3.67;;;20.10;74.60;;;;;;10487301;28;20623;-61
2023/09/23 10:18:56;;;;;;;10.85;2.97;;;20.00;74.90;;;;;;10451640;28;20037;-60
2023/09/23 10:24:00;;;;;;;22.13;3.97;;;20.30;73.90;;;;;;10452105;28;20116;-60
2023/09/23 10:29:05;;;;;;;11.55;2.95;;;20.10;74.40;;;;;;10460282;28;20051;-60
2023/09/23 10:34:08;;;;;;;15.43;4.13;;;20.00;75.10;;;;;;10469694;28;20195;-58
2023/09/23 10:39:15;;;;;;;21.90;3.85;;;19.90;75.20;;;;;;10463927;28;20036;-58
2023/09/23 10:44:23;;;;;;;14.45;3.40;;;20.00;75.50;;;;;;10463780;28;20028;-59
2023/09/23 10:49:24;;;;;;;16.73;3.65;;;19.90;75.60;;;;;;10470287;28;20124;-58
2023/09/23 10:54:25;;;;;;;26.85;4.75;;;19.90;75.50;;;;;;10457008;28;20033;-59
2023/09/23 10:59:26;;;;;;;16.60;3.15;;;20.00;75.20;;;;;;10457718;28;20353;-58
2023/09/23 11:04:27;;;;;;;19.40;4.70;;;20.00;75.20;;;;;;10490370;28;20111;-58
2023/09/23 11:09:30;;;;;;;12.88;3.95;;;19.90;75.30;;;;;;10481904;28;20054;-58
2023/09/23 11:14:32;;;;;;;9.80;2.70;;;19.80;75.40;;;;;;10486042;28;20024;-58
2023/09/23 11:19:33;;;;;;;13.07;3.35;;;19.80;75.50;;;;;;10482041;28;20043;-58
2023/09/23 11:24:38;;;;;;;16.75;4.20;;;19.80;75.50;;;;;;10490660;28;20029;-58
2023/09/23 11:29:39;;;;;;;11.25;3.05;;;19.80;75.40;;;;;;10490915;28;20109;-57
2023/09/23 11:34:40;;;;;;;9.82;3.10;;;19.80;75.60;;;;;;10489906;28;20021;-56
2023/09/23 11:39:40;;;;;;;6.93;2.33;;;19.70;75.60;;;;;;10490310;28;20359;-57
2023/09/23 11:44:42;;;;;;;8.00;3.25;;;19.70;75.60;;;;;;10490415;28;20036;-57
2023/09/23 11:49:42;;;;;;;9.30;2.85;;;19.80;75.60;;;;;;10489503;28;20085;-56
2023/09/23 11:54:44;;;;;;;9.98;2.20;;;19.70;75.30;;;;;;10489593;28;20733;-57
2023/09/23 11:59:44;;;;;;;6.53;2.25;;;19.70;75.20;;;;;;10474848;28;20032;-57
2023/09/23 12:04:48;;;;;;;5.32;1.73;;;19.70;75.30;;;;;;10489392;28;20364;-57
2023/09/23 12:09:49;;;;;;;7.95;2.20;;;19.70;75.20;;;;;;10489113;28;20032;-56
2023/09/23 12:14:50;;;;;;;6.70;2.58;;;19.70;75.20;;;;;;10483538;28;20044;-57
2023/09/23 12:19:51;;;;;;;5.93;2.00;;;19.70;75.20;;;;;;10490392;28;20435;-57
2023/09/23 12:24:52;;;;;;;6.90;2.28;;;19.70;75.20;;;;;;10497221;28;20016;-57
2023/09/23 12:29:53;;;;;;;4.93;1.85;;;19.70;75.20;;;;;;10511759;28;20221;-57
2023/09/23 12:34:53;;;;;;;5.57;2.03;;;19.70;75.10;;;;;;10496516;28;20040;-57
2023/09/23 12:39:57;;;;;;;5.95;1.80;;;19.80;75.20;;;;;;10496084;28;20032;-57
2023/09/23 12:44:58;;;;;;;4.28;2.15;;;19.80;75.10;;;;;;10496495;28;20048;-57
2023/09/23 12:49:58;;;;;;;5.20;1.65;;;19.80;75.10;;;;;;10496270;28;20040;-57
2023/09/23 12:54:59;;;;;;;6.18;2.20;;;19.80;75.20;;;;;;10495846;28;20101;-57
2023/09/23 13:00:01;;;;;;;6.13;2.30;;;19.70;75.10;;;;;;10474989;28;20029;-57
2023/09/23 13:05:02;;;;;;;4.40;2.20;;;19.70;75.10;;;;;;10460262;28;20449;-57
2023/09/23 13:10:04;;;;;;;6.63;1.95;;;19.70;75.10;;;;;;10453996;28;20029;-57
2023/09/23 13:15:07;;;;;;;5.25;1.83;;;19.70;75.00;;;;;;10454315;28;20112;-57
2023/09/23 13:20:08;;;;;;;4.60;1.90;;;19.70;75.00;;;;;;10489982;28;20191;-56
2023/09/23 13:25:09;;;;;;;3.90;1.67;;;19.80;75.00;;;;;;10494456;28;20028;-57
2023/09/23 13:30:10;;;;;;;4.00;1.88;;;19.80;74.90;;;;;;10503831;28;20032;-57
2023/09/23 13:35:11;;;;;;;4.28;1.50;;;19.80;74.80;;;;;;10453498;28;20044;-57
2023/09/23 13:40:12;;;;;;;3.72;1.50;;;19.80;74.80;;;;;;10472227;28;20024;-57
2023/09/23 13:45:12;;;;;;;4.60;1.80;;;19.80;74.80;;;;;;10494604;28;20077;-56
2023/09/23 13:50:13;;;;;;;2.40;1.48;;;19.80;74.70;;;;;;10462556;28;20028;-57
2023/09/23 13:55:14;;;;;;;3.03;1.17;;;19.90;74.70;;;;;;10478091;28;20037;-57
2023/09/23 14:00:15;;;;;;;3.67;2.20;;;19.80;74.70;;;;;;10493628;28;20029;-57
2023/09/23 14:05:15;;;;;;;4.03;1.35;;;19.80;74.70;;;;;;10456859;28;20515;-57
2023/09/23 14:10:16;;;;;;;11.80;1.50;;;19.90;75.60;;;;;;10451830;28;20037;-57
2023/09/23 14:15:17;;;;;;;8.77;1.92;;;20.10;75.40;;;;;;10450605;28;20608;-57
2023/09/23 14:20:18;;;;;;;14.20;2.17;;;20.00;75.40;;;;;;10490415;28;20028;-57
2023/09/23 14:25:20;;;;;;;12.80;1.90;;;20.00;75.20;;;;;;10452216;28;20376;-58
2023/09/23 14:30:20;;;;;;;6.40;1.83;;;20.00;75.60;;;;;;10464597;28;20460;-57
2023/09/23 14:35:21;;;;;;;9.32;2.45;;;20.00;75.70;;;;;;10452635;28;20021;-58
2023/09/23 14:40:24;;;;;;;16.90;2.80;;;20.00;76.00;;;;;;10470826;28;20025;-58
2023/09/23 14:45:25;;;;;;;10.02;2.35;;;20.00;76.10;;;;;;10474359;28;20182;-58
2023/09/23 14:50:26;;;;;;;8.95;2.38;;;20.00;76.30;;;;;;10483855;28;20071;-58
2023/09/23 14:55:26;;;;;;;12.95;2.25;;;19.90;76.50;;;;;;10462494;28;20063;-58
2023/09/23 15:00:27;;;;;;;19.67;2.50;;;20.00;76.80;;;;;;10469755;28;20030;-58
2023/09/23 15:05:28;;;;;;;12.15;2.78;;;20.00;76.80;;;;;;10492334;28;20032;-58
2023/09/23 15:10:28;;;;;;;15.45;3.20;;;19.90;76.40;;;;;;10491891;28;20086;-57
2023/09/23 15:15:29;;;;;;;8.48;2.15;;;19.90;76.30;;;;;;10479420;28;20045;-58
2023/09/23 15:20:30;;;;;;;13.48;2.75;;;19.90;76.10;;;;;;10466542;28;20028;-58
2023/09/23 15:25:31;;;;;;;7.43;1.92;;;19.90;76.30;;;;;;10466294;28;20031;-59
2023/09/23 15:30:32;;;;;;;22.15;3.58;;;19.90;76.40;;;;;;10469347;28;20518;-57
2023/09/23 15:35:32;;;;;;;35.05;6.05;;;19.90;76.40;;;;;;10470643;28;20024;-57
2023/09/23 15:40:33;;;;;;;21.00;4.30;;;20.00;76.10;;;;;;10472031;28;20864;-60
2023/09/23 15:45:39;;;;;;;16.58;3.92;;;20.00;76.50;;;;;;10469251;28;20041;-61
2023/09/23 15:50:40;;;;;;;23.80;6.05;;;19.90;76.10;;;;;;10464544;28;20025;-59
2023/09/23 15:55:41;;;;;;;28.13;4.38;;;19.80;75.80;;;;;;10468542;28;20025;-59
2023/09/23 16:00:43;;;;;;;30.90;4.68;;;19.90;75.70;;;;;;10476691;28;20025;-59
2023/09/23 16:05:44;;;;;;;31.08;10.40;;;19.80;75.60;;;;;;10467893;28;20811;-58
2023/09/23 16:10:45;;;;;;;22.73;7.03;;;19.80;77.80;;;;;;10490691;28;20518;-59
2023/09/23 16:15:46;;;;;;;27.27;5.65;;;19.80;75.60;;;;;;10477894;28;20136;-58
2023/09/23 16:20:46;;;;;;;26.35;5.68;;;19.80;77.20;;;;;;10468484;28;20032;-59
2023/09/23 16:25:48;;;;;;;21.30;5.93;;;20.00;76.60;;;;;;10474569;28;20044;-59
2023/09/23 16:30:48;;;;;;;28.23;7.20;;;20.20;76.40;;;;;;10481014;28;20029;-59
2023/09/23 16:35:49;;;;;;;22.88;6.88;;;20.20;76.10;;;;;;10457155;28;20029;-58
2023/09/23 16:40:50;;;;;;;29.35;7.63;;;20.30;76.10;;;;;;10465376;28;20567;-57
2023/09/23 16:45:51;;;;;;;19.73;4.78;;;20.20;75.70;;;;;;10464576;28;20492;-59
2023/09/23 16:50:53;;;;;;;21.25;5.20;;;20.20;75.90;;;;;;10450536;28;20025;-58
2023/09/23 16:55:54;;;;;;;25.80;5.88;;;20.20;76.00;;;;;;10472459;28;20036;-60
2023/09/23 17:00:55;;;;;;;35.08;5.38;;;20.10;76.10;;;;;;10462259;28;20037;-60
2023/09/23 17:05:55;;;;;;;22.40;5.53;;;20.10;76.50;;;;;;10455805;28;20041;-61
2023/09/23 17:10:56;;;;;;;33.95;6.60;;;20.00;76.50;;;;;;10483499;28;20033;-60
2023/09/23 17:15:57;;;;;;;22.85;4.95;;;20.00;76.70;;;;;;10480006;28;20407;-61
2023/09/23 17:20:57;;;;;;;37.72;6.20;;;19.90;76.90;;;;;;10454972;28;20032;-60
2023/09/23 17:26:03;;;;;;;24.98;5.32;;;19.90;76.80;;;;;;10454699;28;20470;-60
2023/09/23 17:31:09;;;;;;;32.00;5.88;;;19.90;76.80;;;;;;10472120;28;20043;-59
2023/09/23 17:36:10;;;;;;;37.75;6.95;;;19.90;76.80;;;;;;10458361;28;20033;-59
2023/09/23 17:41:13;;;;;;;28.30;4.93;;;19.80;76.70;;;;;;10453879;28;20428;-59
2023/09/23 17:46:14;;;;;;;17.35;4.95;;;19.80;76.70;;;;;;10454013;28;20635;-59
2023/09/23 17:51:15;;;;;;;18.67;4.22;;;19.80;76.90;;;;;;10454531;28;20045;-58
2023/09/23 17:56:16;;;;;;;16.75;4.80;;;19.80;76.90;;;;;;10453306;28;20041;-58
2023/09/23 18:01:17;;;;;;;16.25;4.80;;;19.80;77.00;;;;;;10453422;28;20025;-60
2023/09/23 18:06:18;;;;;;;31.27;6.88;;;19.80;77.00;;;;;;10469058;28;20055;-59
2023/09/23 18:11:19;;;;;;;21.92;5.22;;;19.80;76.70;;;;;;10468969;28;20423;-59
2023/09/23 18:16:19;;;;;;;20.10;5.00;;;19.80;76.90;;;;;;10472701;28;20098;-59
2023/09/23 18:21:21;;;;;;;21.75;6.20;;;19.80;76.90;;;;;;10469956;28;20025;-59
2023/09/23 18:26:22;;;;;;;31.85;6.72;;;19.80;76.90;;;;;;10460674;28;20064;-59
2023/09/23 18:31:23;;;;;;;27.02;5.15;;;19.80;76.90;;;;;;10476827;28;20029;-59
2023/09/23 18:36:24;;;;;;;20.38;5.13;;;19.80;77.00;;;;;;10463771;28;20356;-59
2023/09/23 18:41:25;;;;;;;17.50;4.65;;;19.80;77.00;;;;;;10451649;28;20025;-59
2023/09/23 18:46:25;;;;;;;19.58;3.97;;;19.80;77.00;;;;;;10478039;28;20503;-59
2023/09/23 18:51:26;;;;;;;19.58;5.45;;;19.80;77.00;;;;;;10452942;28;20040;-59
2023/09/23 18:56:27;;;;;;;11.93;4.20;;;19.80;76.90;;;;;;10450706;28;20029;-59
2023/09/23 19:01:28;;;;;;;16.67;5.28;;;19.80;76.90;;;;;;10460155;28;20040;-59
2023/09/23 19:06:28;;;;;;;14.00;4.43;;;19.80;76.90;;;;;;10457239;28;20028;-59
2023/09/23 19:11:29;;;;;;;10.68;3.42;;;19.80;76.90;;;;;;10453295;28;20044;-59
2023/09/23 19:16:30;;;;;;;16.17;4.25;;;19.80;76.80;;;;;;10468431;28;20040;-59
2023/09/23 19:21:31;;;;;;;9.77;4.47;;;19.80;76.80;;;;;;10466810;28;20482;-57
2023/09/23 19:26:32;;;;;;;10.20;4.80;;;20.00;77.10;;;;;;10466271;28;20031;-59
2023/09/23 19:31:34;;;;;;;11.13;5.05;;;20.00;76.90;;;;;;10469933;28;20464;-59
2023/09/23 19:36:35;;;;;;;14.25;5.38;;;19.90;77.00;;;;;;10461773;28;20051;-59
2023/09/23 19:41:36;;;;;;;12.48;4.30;;;19.80;77.00;;;;;;10458724;28;20028;-59
2023/09/23 19:46:36;;;;;;;9.80;4.55;;;19.80;77.10;;;;;;10491502;28;20028;-59
2023/09/23 19:51:37;;;;;;;11.60;4.28;;;19.70;77.00;;;;;;10465464;28;20028;-59
2023/09/23 19:56:38;;;;;;;11.65;6.03;;;19.70;76.90;;;;;;10449445;28;20033;-59
2023/09/23 20:01:38;;;;;;;11.23;3.97;;;19.70;77.00;;;;;;10454540;28;20025;-59
2023/09/23 20:06:40;;;;;;;7.55;3.90;;;19.70;76.90;;;;;;10449358;28;20041;-59
2023/09/23 20:11:42;;;;;;;9.30;4.32;;;19.70;76.90;;;;;;10449609;28;20051;-59
2023/09/23 20:16:43;;;;;;;9.35;3.90;;;19.70;76.80;;;;;;10458095;28;20079;-59
2023/09/23 20:21:44;;;;;;;11.68;4.60;;;19.70;76.80;;;;;;10479316;28;20048;-59
2023/09/23 20:26:47;;;;;;;8.10;4.13;;;19.60;76.80;;;;;;10448824;28;20106;-59
2023/09/23 20:31:48;;;;;;;8.57;3.58;;;19.70;76.90;;;;;;10461153;28;20399;-59
2023/09/23 20:36:49;;;;;;;11.13;4.32;;;19.60;76.80;;;;;;10480050;28;20089;-59
2023/09/23 20:41:50;;;;;;;6.85;3.60;;;19.60;76.80;;;;;;10498296;28;20020;-59
2023/09/23 20:46:51;;;;;;;8.75;4.10;;;19.60;76.80;;;;;;10497712;28;20043;-59
2023/09/23 20:51:52;;;;;;;9.65;3.80;;;19.60;76.70;;;;;;10497774;28;20024;-59
2023/09/23 20:56:53;;;;;;;4.45;3.03;;;19.60;76.60;;;;;;10495641;28;20025;-59
2023/09/23 21:01:54;;;;;;;9.40;3.33;;;19.60;76.50;;;;;;10487073;28;20037;-59
2023/09/23 21:06:55;;;;;;;5.20;3.05;;;19.60;76.50;;;;;;10456036;28;20037;-59
2023/09/23 21:11:55;;;;;;;13.70;5.22;;;19.60;76.30;;;;;;10455459;28;20518;-59
2023/09/23 21:16:56;;;;;;;10.80;3.67;;;19.60;76.30;;;;;;10466253;28;20067;-59
2023/09/23 21:21:57;;;;;;;5.60;3.08;;;19.50;76.20;;;;;;10496919;28;20032;-59
2023/09/23 21:26:57;;;;;;;6.05;3.22;;;19.60;76.20;;;;;;10455809;28;20037;-59
2023/09/23 21:32:00;;;;;;;8.02;3.75;;;19.50;76.10;;;;;;10467354;28;20029;-60
2023/09/23 21:37:00;;;;;;;4.47;2.75;;;19.50;76.10;;;;;;10457848;28;20039;-59
2023/09/23 21:42:01;;;;;;;6.18;3.58;;;19.50;76.10;;;;;;10454451;28;20025;-59
2023/09/23 21:47:06;;;;;;;6.85;3.78;;;19.50;76.00;;;;;;10453156;28;20037;-58
2023/09/23 21:52:07;;;;;;;7.55;3.65;;;19.50;76.00;;;;;;10454247;28;20040;-59
2023/09/23 21:57:07;;;;;;;3.88;2.50;;;19.50;76.00;;;;;;10466806;28;20020;-58
2023/09/23 22:02:08;;;;;;;4.68;3.33;;;19.50;76.00;;;;;;10472590;28;20031;-59
2023/09/23 22:07:09;;;;;;;3.67;2.53;;;19.50;76.00;;;;;;10453138;28;20021;-59
2023/09/23 22:12:10;;;;;;;3.25;2.75;;;19.50;76.00;;;;;;10453741;28;20057;-59
2023/09/23 22:17:13;;;;;;;4.00;2.65;;;19.40;76.00;;;;;;10465622;28;20567;-60
2023/09/23 22:22:16;;;;;;;5.70;2.80;;;19.40;75.80;;;;;;10494043;28;20067;-59
2023/09/23 22:27:18;;;;;;;5.22;2.92;;;19.40;75.80;;;;;;10463413;28;20090;-60
2023/09/23 22:32:19;;;;;;;5.90;2.30;;;19.50;75.80;;;;;;10465409;28;20074;-59
2023/09/23 22:37:20;;;;;;;4.47;2.45;;;19.40;75.70;;;;;;10452108;28;20086;-59
2023/09/23 22:42:21;;;;;;;6.68;4.03;;;19.40;75.70;;;;;;10452416;28;20368;-59
2023/09/23 22:47:21;;;;;;;5.50;2.85;;;19.40;75.70;;;;;;10451459;28;20388;-59
2023/09/23 22:52:25;;;;;;;2.72;1.98;;;19.40;75.70;;;;;;10451889;28;20032;-59
2023/09/23 22:57:25;;;;;;;3.42;1.80;;;19.40;75.60;;;;;;10450862;28;20086;-59
2023/09/23 23:02:26;;;;;;;5.15;2.47;;;19.40;75.70;;;;;;10451339;28;20037;-59
2023/09/23 23:07:27;;;;;;;4.38;2.67;;;19.40;75.60;;;;;;10450819;28;20036;-59
2023/09/23 23:12:29;;;;;;;5.65;2.25;;;19.40;75.60;;;;;;10450894;28;20376;-59
2023/09/23 23:17:29;;;;;;;4.15;1.85;;;19.40;75.60;;;;;;10465813;28;20403;-59
2023/09/23 23:22:30;;;;;;;3.30;2.05;;;19.40;75.60;;;;;;10491780;28;20029;-59
2023/09/23 23:27:31;;;;;;;3.20;2.00;;;19.40;75.60;;;;;;10491672;28;20403;-59
2023/09/23 23:32:32;;;;;;;3.50;1.98;;;19.40;75.60;;;;;;10466085;28;20040;-59
2023/09/23 23:37:35;;;;;;;3.35;2.10;;;19.40;75.50;;;;;;10449801;28;20021;-61
2023/09/23 23:42:37;;;;;;;3.42;2.05;;;19.30;75.40;;;;;;10454780;28;20064;-59
2023/09/23 23:47:39;;;;;;;4.50;2.25;;;19.30;75.40;;;;;;10449526;28;20086;-59
2023/09/23 23:52:40;;;;;;;3.13;1.70;;;19.30;75.20;;;;;;10449992;28;20029;-59
2023/09/23 23:57:44;;;;;;;4.47;2.10;;;19.30;75.80;;;;;;10449740;28;20083;-59
